createdAt,value
2019-01-14T00:01:16.998Z,5.20
2019-01-14T00:03:46.259Z,5.20
2019-01-14T00:06:15.530Z,5.20
2019-01-14T00:08:44.678Z,5.20
2019-01-14T00:11:13.902Z,5.20
2019-01-14T00:13:43.219Z,5.20
2019-01-14T00:16:12.615Z,5.20
2019-01-14T00:18:42.021Z,5.20
2019-01-14T00:21:11.209Z,5.20
2019-01-14T00:23:40.436Z,5.20
2019-01-14T00:26:10.902Z,5.20
2019-01-14T00:28:41.390Z,5.20
2019-01-14T00:31:10.636Z,5.20
2019-01-14T00:33:39.866Z,5.20
2019-01-14T00:36:09.089Z,5.10
2019-01-14T00:38:38.308Z,5.10
2019-01-14T00:41:07.552Z,5.10
2019-01-14T00:43:36.722Z,5.00
2019-01-14T00:46:05.898Z,5.00
2019-01-14T00:48:35.039Z,5.00
2019-01-14T00:51:04.262Z,5.00
2019-01-14T00:53:33.562Z,5.00
2019-01-14T00:56:02.870Z,4.90
2019-01-14T00:58:32.059Z,5.00
2019-01-14T01:01:01.293Z,5.00
2019-01-14T01:03:30.594Z,5.00
2019-01-14T01:05:59.720Z,5.10
2019-01-14T01:08:29.035Z,5.00
2019-01-14T01:10:58.245Z,5.00
2019-01-14T01:13:27.417Z,5.00
2019-01-14T01:15:58.124Z,5.00
2019-01-14T01:18:27.286Z,4.90
2019-01-14T01:20:56.454Z,4.90
2019-01-14T01:23:25.752Z,4.90
2019-01-14T01:25:54.999Z,4.80
2019-01-14T01:28:24.275Z,4.80
2019-01-14T01:30:53.463Z,4.80
2019-01-14T01:33:22.764Z,4.90
2019-01-14T01:35:52.106Z,4.80
2019-01-14T01:38:21.284Z,4.80
2019-01-14T01:40:50.519Z,4.90
2019-01-14T01:43:19.678Z,4.90
2019-01-14T01:45:48.896Z,4.90
2019-01-14T01:48:18.056Z,4.90
2019-01-14T01:50:47.318Z,4.80
2019-01-14T01:53:16.463Z,4.80
2019-01-14T01:55:45.670Z,4.80
2019-01-14T01:58:14.904Z,4.80
2019-01-14T02:00:44.206Z,4.80
2019-01-14T02:03:13.389Z,4.80
2019-01-14T02:05:42.677Z,4.70
2019-01-14T02:08:11.960Z,4.60
2019-01-14T02:10:41.320Z,4.60
2019-01-14T02:13:10.533Z,4.50
2019-01-14T02:15:40.599Z,4.60
2019-01-14T02:18:09.949Z,4.60
2019-01-14T02:20:39.198Z,4.70
2019-01-14T02:23:08.469Z,4.70
2019-01-14T02:25:37.659Z,4.80
2019-01-14T02:28:06.899Z,4.80
2019-01-14T02:30:36.057Z,4.80
2019-01-14T02:33:05.310Z,4.80
2019-01-14T02:35:34.586Z,4.80
2019-01-14T02:38:03.724Z,4.70
2019-01-14T02:40:32.979Z,4.70
2019-01-14T02:43:02.281Z,4.60
2019-01-14T02:45:31.535Z,4.60
2019-01-14T02:48:00.717Z,4.60
2019-01-14T02:50:29.894Z,4.50
2019-01-14T02:52:59.240Z,4.50
2019-01-14T02:55:28.508Z,4.50
2019-01-14T02:57:57.803Z,4.50
2019-01-14T03:00:27.967Z,4.50
2019-01-14T03:02:57.121Z,4.50
2019-01-14T03:05:26.413Z,4.50
2019-01-14T03:07:55.608Z,4.50
2019-01-14T03:10:24.763Z,4.50
2019-01-14T03:12:54.027Z,4.50
2019-01-14T03:15:23.275Z,4.50
2019-01-14T03:17:52.515Z,4.50
2019-01-14T03:20:21.747Z,4.50
2019-01-14T03:22:50.972Z,4.50
2019-01-14T03:25:20.225Z,4.50
2019-01-14T03:27:49.520Z,4.50
2019-01-14T03:30:19.586Z,4.50
2019-01-14T03:32:48.866Z,4.40
2019-01-14T03:35:18.178Z,4.40
2019-01-14T03:37:47.410Z,4.40
2019-01-14T03:40:18.102Z,4.30
2019-01-14T03:42:47.309Z,4.30
2019-01-14T03:45:17.061Z,4.30
2019-01-14T03:47:46.361Z,4.20
2019-01-14T03:50:23.745Z,4.20
2019-01-14T03:52:52.895Z,4.20
2019-01-14T03:55:22.035Z,4.10
2019-01-14T03:57:52.714Z,4.10
2019-01-14T04:00:21.905Z,4.10
2019-01-14T04:02:51.235Z,4.00
2019-01-14T04:05:20.397Z,4.00
2019-01-14T04:07:49.598Z,4.10
2019-01-14T04:10:18.916Z,4.10
2019-01-14T04:12:48.077Z,4.10
2019-01-14T04:15:19.107Z,4.00
2019-01-14T04:17:48.361Z,4.00
2019-01-14T04:20:18.851Z,4.00
2019-01-14T04:22:48.389Z,4.00
2019-01-14T04:25:17.673Z,4.00
2019-01-14T04:27:46.877Z,4.00
2019-01-14T04:30:23.860Z,4.00
2019-01-14T04:32:53.239Z,4.00
2019-01-14T04:35:23.598Z,4.00
2019-01-14T04:37:53.060Z,4.00
2019-01-14T04:40:22.501Z,4.00
2019-01-14T04:42:51.660Z,4.00
2019-01-14T04:45:20.833Z,4.00
2019-01-14T04:47:50.131Z,4.00
2019-01-14T04:50:22.096Z,4.00
2019-01-14T04:52:51.401Z,4.10
2019-01-14T04:55:20.560Z,4.10
2019-01-14T04:57:49.885Z,4.10
2019-01-14T05:00:21.531Z,4.10
2019-01-14T05:02:50.662Z,4.10
2019-01-14T05:05:20.033Z,4.10
2019-01-14T05:07:49.254Z,4.10
2019-01-14T05:10:18.974Z,4.10
2019-01-14T05:12:48.108Z,4.10
2019-01-14T05:15:17.312Z,4.10
2019-01-14T05:17:46.483Z,4.10
2019-01-14T05:20:23.713Z,4.10
2019-01-14T05:22:53.575Z,4.10
2019-01-14T05:25:22.720Z,4.10
2019-01-14T05:27:51.855Z,4.10
2019-01-14T05:30:21.147Z,4.10
2019-01-14T05:32:50.335Z,4.20
2019-01-14T05:35:19.555Z,4.20
2019-01-14T05:37:48.778Z,4.10
2019-01-14T05:40:20.179Z,4.20
2019-01-14T05:42:49.427Z,4.20
2019-01-14T05:45:18.739Z,4.20
2019-01-14T05:47:47.867Z,4.20
2019-01-14T05:50:17.047Z,4.20
2019-01-14T05:52:47.593Z,4.20
2019-01-14T05:55:17.160Z,4.20
2019-01-14T05:57:46.441Z,4.20
2019-01-14T06:00:24.254Z,4.20
2019-01-14T06:02:53.375Z,4.20
2019-01-14T06:05:22.639Z,4.20
2019-01-14T06:07:51.885Z,4.20
2019-01-14T06:10:21.043Z,4.10
2019-01-14T06:12:50.249Z,4.10
2019-01-14T06:15:19.619Z,4.10
2019-01-14T06:17:48.939Z,4.10
2019-01-14T06:20:18.995Z,4.00
2019-01-14T06:22:48.334Z,4.00
2019-01-14T06:25:17.824Z,4.00
2019-01-14T06:27:47.124Z,4.00
2019-01-14T06:30:18.904Z,3.90
2019-01-14T06:32:48.124Z,3.90
2019-01-14T06:35:17.375Z,3.90
2019-01-14T06:37:52.269Z,3.90
2019-01-14T06:40:18.714Z,3.90
2019-01-14T06:42:48.055Z,3.90
2019-01-14T06:45:17.750Z,3.90
2019-01-14T06:47:46.952Z,3.90
2019-01-14T06:50:17.417Z,3.90
2019-01-14T06:52:46.974Z,3.90
2019-01-14T06:55:16.595Z,3.90
2019-01-14T06:57:45.916Z,3.90
2019-01-14T07:00:18.332Z,3.90
2019-01-14T07:02:47.498Z,3.80
2019-01-14T07:05:16.972Z,3.80
2019-01-14T07:07:46.286Z,3.80
2019-01-14T07:10:19.181Z,3.80
2019-01-14T07:12:48.463Z,3.70
2019-01-14T07:15:17.707Z,3.70
2019-01-14T07:17:48.235Z,3.70
2019-01-14T07:20:18.303Z,3.70
2019-01-14T07:22:47.547Z,3.80
2019-01-14T07:25:16.934Z,3.80
2019-01-14T07:27:46.259Z,3.80
2019-01-14T07:30:17.303Z,3.80
2019-01-14T07:32:46.510Z,3.80
2019-01-14T07:35:15.845Z,3.80
2019-01-14T07:37:44.978Z,3.80
2019-01-14T07:40:14.807Z,3.80
2019-01-14T07:42:44.095Z,3.80
2019-01-14T07:45:15.033Z,3.80
2019-01-14T07:47:44.282Z,3.80
2019-01-14T07:50:14.915Z,3.80
2019-01-14T07:52:44.287Z,3.80
2019-01-14T07:55:13.192Z,3.80
2019-01-14T07:57:42.385Z,3.90
2019-01-14T08:00:17.854Z,3.80
2019-01-14T08:02:47.004Z,3.90
2019-01-14T08:05:16.150Z,3.90
2019-01-14T08:07:45.383Z,4.00
2019-01-14T08:10:14.547Z,4.00
2019-01-14T08:12:43.982Z,4.00
2019-01-14T08:15:19.514Z,4.00
2019-01-14T08:17:48.765Z,4.10
2019-01-14T08:20:18.068Z,4.10
2019-01-14T08:22:47.282Z,4.10
2019-01-14T08:25:17.049Z,4.00
2019-01-14T08:27:46.261Z,4.00
2019-01-14T08:30:17.776Z,4.00
2019-01-14T08:32:47.151Z,3.90
2019-01-14T08:35:16.970Z,3.90
2019-01-14T08:37:46.128Z,3.90
2019-01-14T08:40:15.992Z,3.90
2019-01-14T08:42:45.334Z,3.90
2019-01-14T08:45:14.898Z,3.90
2019-01-14T08:47:44.365Z,3.90
2019-01-14T08:50:19.022Z,3.90
2019-01-14T08:52:48.270Z,3.90
2019-01-14T08:55:17.548Z,3.90
2019-01-14T08:57:46.703Z,3.70
2019-01-14T09:00:18.793Z,3.60
2019-01-14T09:02:48.152Z,3.40
2019-01-14T09:05:17.559Z,3.30
2019-01-14T09:07:46.934Z,3.10
2019-01-14T09:10:21.946Z,3.10
2019-01-14T09:12:51.259Z,2.90
2019-01-14T09:15:20.536Z,3.00
2019-01-14T09:17:49.765Z,3.00
2019-01-14T09:20:21.022Z,3.00
2019-01-14T09:22:50.271Z,3.00
2019-01-14T09:25:19.504Z,3.10
2019-01-14T09:27:48.748Z,3.10
2019-01-14T09:30:20.262Z,3.20
2019-01-14T09:32:49.598Z,3.20
2019-01-14T09:35:18.917Z,3.30
2019-01-14T09:37:48.178Z,3.40
2019-01-14T09:40:19.163Z,3.40
2019-01-14T09:42:48.388Z,3.40
2019-01-14T09:45:17.674Z,3.40
2019-01-14T09:47:46.921Z,3.40
2019-01-14T09:50:16.711Z,3.40
2019-01-14T09:52:45.902Z,3.40
2019-01-14T09:55:17.002Z,3.40
2019-01-14T09:57:46.402Z,3.40
2019-01-14T10:00:15.804Z,3.40
2019-01-14T10:02:46.038Z,3.50
2019-01-14T10:05:17.456Z,3.50
2019-01-14T10:07:47.054Z,3.50
2019-01-14T10:10:17.394Z,3.50
2019-01-14T10:12:46.754Z,3.60
2019-01-14T10:15:18.171Z,3.50
2019-01-14T10:17:49.406Z,3.50
2019-01-14T10:20:18.526Z,3.60
2019-01-14T10:22:47.789Z,3.60
2019-01-14T10:25:17.134Z,3.60
2019-01-14T10:27:46.376Z,3.60
2019-01-14T10:30:17.150Z,3.70
2019-01-14T10:32:46.394Z,3.80
2019-01-14T10:35:15.838Z,3.90
2019-01-14T10:37:45.444Z,4.00
2019-01-14T10:40:15.266Z,4.20
2019-01-14T10:42:44.475Z,4.40
2019-01-14T10:45:16.338Z,4.60
2019-01-14T10:47:45.510Z,4.70
2019-01-14T10:50:14.874Z,4.80
2019-01-14T10:52:44.206Z,4.70
2019-01-14T10:55:13.764Z,4.50
2019-01-14T10:57:43.494Z,4.40
2019-01-14T11:00:15.902Z,4.30
2019-01-14T11:02:48.046Z,4.20
2019-01-14T11:05:20.238Z,4.20
2019-01-14T11:07:49.490Z,4.10
2019-01-14T11:10:18.811Z,4.50
2019-01-14T11:12:48.024Z,5.10
2019-01-14T11:15:17.535Z,5.80
2019-01-14T11:17:46.812Z,5.90
2019-01-14T11:20:18.580Z,5.80
2019-01-14T11:22:47.842Z,5.70
2019-01-14T11:25:18.705Z,5.50
2019-01-14T11:27:47.934Z,5.20
2019-01-14T11:30:20.218Z,5.40
2019-01-14T11:32:49.408Z,5.10
2019-01-14T11:35:18.656Z,4.90
2019-01-14T11:37:47.913Z,4.60
2019-01-14T11:40:19.733Z,4.60
2019-01-14T11:42:49.038Z,4.80
2019-01-14T11:45:18.342Z,4.60
2019-01-14T11:47:47.545Z,4.40
2019-01-14T11:50:17.400Z,4.30
2019-01-14T11:52:46.657Z,4.30
2019-01-14T11:55:15.946Z,4.30
2019-01-14T11:57:45.462Z,4.30
2019-01-14T12:00:18.547Z,4.30
2019-01-14T12:02:47.808Z,4.40
2019-01-14T12:05:17.151Z,4.50
2019-01-14T12:07:46.413Z,4.40
2019-01-14T12:10:15.699Z,4.40
2019-01-14T12:12:44.936Z,4.30
2019-01-14T12:15:17.562Z,4.30
2019-01-14T12:17:46.716Z,4.30
2019-01-14T12:20:16.178Z,4.30
2019-01-14T12:22:45.356Z,4.30
2019-01-14T12:25:14.980Z,4.30
2019-01-14T12:27:44.199Z,4.40
2019-01-14T12:30:29.322Z,4.40
2019-01-14T12:32:58.606Z,4.30
2019-01-14T12:35:27.846Z,4.40
2019-01-14T12:37:57.100Z,4.40
2019-01-14T12:40:26.358Z,4.40
2019-01-14T12:42:55.659Z,4.40
2019-01-14T12:45:25.061Z,4.50
2019-01-14T12:47:54.414Z,4.60
2019-01-14T12:50:23.918Z,4.70
2019-01-14T12:52:53.225Z,4.70
2019-01-14T12:55:22.502Z,4.60
2019-01-14T12:57:51.809Z,4.60
2019-01-14T13:00:23.130Z,4.60
2019-01-14T13:02:52.512Z,4.60
2019-01-14T13:05:23.099Z,4.70
2019-01-14T13:07:52.474Z,4.70
2019-01-14T13:10:21.852Z,4.60
2019-01-14T13:12:51.198Z,4.60
2019-01-14T13:15:22.658Z,4.60
2019-01-14T13:17:52.514Z,4.50
2019-01-14T13:20:22.076Z,4.40
2019-01-14T13:22:51.341Z,4.30
2019-01-14T13:25:20.877Z,4.20
2019-01-14T13:27:50.149Z,4.10
2019-01-14T13:30:32.454Z,4.10
2019-01-14T13:33:01.891Z,4.10
2019-01-14T13:35:31.387Z,4.00
2019-01-14T13:38:00.814Z,3.80
2019-01-14T13:40:29.998Z,3.60
2019-01-14T13:42:59.267Z,3.50
2019-01-14T13:45:28.442Z,3.50
2019-01-14T13:47:57.747Z,3.30
2019-01-14T13:50:27.725Z,3.10
2019-01-14T13:52:57.002Z,3.10
2019-01-14T13:55:26.262Z,3.00
2019-01-14T13:57:59.773Z,2.90
2019-01-14T14:00:27.966Z,2.90
2019-01-14T14:02:57.255Z,2.80
2019-01-14T14:05:26.516Z,2.80
2019-01-14T14:07:55.828Z,2.80
2019-01-14T14:10:27.730Z,2.80
2019-01-14T14:12:56.994Z,2.80
2019-01-14T14:15:26.641Z,2.80
2019-01-14T14:17:56.717Z,2.80
2019-01-14T14:20:26.232Z,2.80
2019-01-14T14:22:55.447Z,2.70
2019-01-14T14:25:24.734Z,2.70
2019-01-14T14:27:53.938Z,2.70
2019-01-14T14:30:26.154Z,2.70
2019-01-14T14:32:55.597Z,2.70
2019-01-14T14:35:25.072Z,2.60
2019-01-14T14:38:00.652Z,2.60
2019-01-14T14:40:25.188Z,2.60
2019-01-14T14:42:54.667Z,2.70
2019-01-14T14:45:24.182Z,2.70
2019-01-14T14:47:53.384Z,2.70
2019-01-14T14:50:22.760Z,2.70
2019-01-14T14:52:52.127Z,2.70
2019-01-14T14:55:21.375Z,2.70
2019-01-14T14:57:50.662Z,2.70
2019-01-14T15:00:21.328Z,2.80
2019-01-14T15:02:50.694Z,2.70
2019-01-14T15:05:20.188Z,2.70
2019-01-14T15:07:49.439Z,2.70
2019-01-14T15:10:20.758Z,2.70
2019-01-14T15:12:50.134Z,2.70
2019-01-14T15:15:21.862Z,2.80
2019-01-14T15:17:51.050Z,2.80
2019-01-14T15:20:21.674Z,2.80
2019-01-14T15:22:50.947Z,2.80
2019-01-14T15:25:20.278Z,2.80
2019-01-14T15:27:49.504Z,2.80
2019-01-14T15:30:24.458Z,2.70
2019-01-14T15:32:53.747Z,2.60
2019-01-14T15:35:23.683Z,2.60
2019-01-14T15:37:52.911Z,2.50
2019-01-14T15:40:22.885Z,2.40
2019-01-14T15:42:52.182Z,2.40
2019-01-14T15:45:22.764Z,2.40
2019-01-14T15:47:52.059Z,2.30
2019-01-14T15:50:24.163Z,2.30
2019-01-14T15:52:53.383Z,2.40
2019-01-14T15:55:26.853Z,2.30
2019-01-14T15:57:56.250Z,2.30
2019-01-14T16:00:25.879Z,2.30
2019-01-14T16:02:55.199Z,2.30
2019-01-14T16:05:24.592Z,2.20
2019-01-14T16:07:53.752Z,2.20
2019-01-14T16:10:25.045Z,2.20
2019-01-14T16:12:54.356Z,2.20
2019-01-14T16:15:24.744Z,2.10
2019-01-14T16:17:54.051Z,2.10
2019-01-14T16:20:27.550Z,2.10
2019-01-14T16:22:56.977Z,2.10
2019-01-14T16:25:26.161Z,2.10
2019-01-14T16:27:55.368Z,2.00
2019-01-14T16:30:26.511Z,2.00
2019-01-14T16:32:55.765Z,2.00
2019-01-14T16:35:25.198Z,2.00
2019-01-14T16:37:54.570Z,2.00
2019-01-14T16:40:23.950Z,2.00
2019-01-14T16:42:53.184Z,1.90
2019-01-14T16:45:26.851Z,1.90
2019-01-14T16:47:56.228Z,1.90
2019-01-14T16:50:25.487Z,1.90
2019-01-14T16:52:54.726Z,1.90
2019-01-14T16:55:43.039Z,1.80
2019-01-14T16:58:12.272Z,1.80
2019-01-14T17:00:41.487Z,1.70
2019-01-14T17:03:10.671Z,1.70
2019-01-14T17:05:39.907Z,1.70
2019-01-14T17:08:09.183Z,1.60
2019-01-14T17:10:38.363Z,1.60
2019-01-14T17:13:07.521Z,1.60
2019-01-14T17:15:36.755Z,1.60
2019-01-14T17:18:06.143Z,1.60
2019-01-14T17:20:35.607Z,1.60
2019-01-14T17:23:05.108Z,1.60
2019-01-14T17:25:34.323Z,1.60
2019-01-14T17:28:03.525Z,1.60
2019-01-14T17:30:32.739Z,1.60
2019-01-14T17:33:02.010Z,1.60
2019-01-14T17:35:31.283Z,1.70
2019-01-14T17:38:00.490Z,1.80
2019-01-14T17:40:32.703Z,1.80
2019-01-14T17:43:00.624Z,1.90
2019-01-14T17:45:29.831Z,2.00
2019-01-14T17:47:59.029Z,1.90
2019-01-14T17:50:28.237Z,1.90
2019-01-14T17:52:57.663Z,1.80
2019-01-14T17:55:26.844Z,1.80
2019-01-14T17:57:56.115Z,1.80
2019-01-14T18:00:26.647Z,1.80
2019-01-14T18:02:55.842Z,1.80
2019-01-14T18:05:24.994Z,1.80
2019-01-14T18:07:54.272Z,1.80
2019-01-14T18:10:23.531Z,1.70
2019-01-14T18:12:52.811Z,1.70
2019-01-14T18:15:22.143Z,1.70
2019-01-14T18:17:51.371Z,1.70
2019-01-14T18:20:21.220Z,1.70
2019-01-14T18:22:50.492Z,1.60
2019-01-14T18:25:19.763Z,1.60
2019-01-14T18:27:49.017Z,1.60
2019-01-14T18:30:20.012Z,1.70
2019-01-14T18:32:49.573Z,1.80
2019-01-14T18:35:19.323Z,1.90
2019-01-14T18:37:48.626Z,1.90
2019-01-14T18:40:19.030Z,1.90
2019-01-14T18:42:48.556Z,1.90
2019-01-14T18:45:19.537Z,1.90
2019-01-14T18:47:49.445Z,1.90
2019-01-14T18:50:22.957Z,2.00
2019-01-14T18:52:52.254Z,2.00
2019-01-14T18:55:21.635Z,2.00
2019-01-14T18:57:50.893Z,2.00
2019-01-14T19:00:24.079Z,2.00
2019-01-14T19:02:53.467Z,2.00
2019-01-14T19:05:23.119Z,2.00
2019-01-14T19:07:52.463Z,1.90
2019-01-14T19:10:21.661Z,1.90
2019-01-14T19:12:51.005Z,1.90
2019-01-14T19:15:21.643Z,1.90
2019-01-14T19:17:52.232Z,1.90
2019-01-14T19:20:26.820Z,1.90
2019-01-14T19:22:56.441Z,2.00
2019-01-14T19:25:28.202Z,2.00
2019-01-14T19:27:57.516Z,2.00
2019-01-14T19:30:26.953Z,2.00
2019-01-14T19:32:56.174Z,1.90
2019-01-14T19:35:25.491Z,2.00
2019-01-14T19:37:54.841Z,1.90
2019-01-14T19:40:24.178Z,2.00
2019-01-14T19:42:53.535Z,1.90
2019-01-14T19:45:23.366Z,1.90
2019-01-14T19:47:52.650Z,1.90
2019-01-14T19:50:23.604Z,1.90
2019-01-14T19:52:53.838Z,1.80
2019-01-14T19:55:23.178Z,1.80
2019-01-14T19:57:52.485Z,1.80
2019-01-14T20:00:29.510Z,1.80
2019-01-14T20:02:58.921Z,1.90
2019-01-14T20:05:28.176Z,1.90
2019-01-14T20:07:57.785Z,2.00
2019-01-14T20:10:27.094Z,2.00
2019-01-14T20:12:56.971Z,2.00
2019-01-14T20:15:26.317Z,2.00
2019-01-14T20:17:55.670Z,2.00
2019-01-14T20:20:24.956Z,2.00
2019-01-14T20:22:54.329Z,2.00
2019-01-14T20:25:23.679Z,2.10
2019-01-14T20:27:52.990Z,2.10
2019-01-14T20:30:23.993Z,2.00
2019-01-14T20:32:53.320Z,2.10
2019-01-14T20:35:22.651Z,2.00
2019-01-14T20:37:52.399Z,2.00
2019-01-14T20:40:21.752Z,2.00
2019-01-14T20:42:51.080Z,2.00
2019-01-14T20:45:20.323Z,2.00
2019-01-14T20:47:49.554Z,2.00
2019-01-14T20:50:19.979Z,1.90
2019-01-14T20:52:49.375Z,1.90
2019-01-14T20:55:18.717Z,1.80
2019-01-14T20:57:48.161Z,1.70
2019-01-14T21:00:20.267Z,1.70
2019-01-14T21:02:49.510Z,1.60
2019-01-14T21:05:19.056Z,1.60
2019-01-14T21:07:48.402Z,1.60
2019-01-14T21:10:17.927Z,1.60
2019-01-14T21:12:47.173Z,1.60
2019-01-14T21:15:16.595Z,1.60
2019-01-14T21:17:45.860Z,1.60
2019-01-14T21:20:20.699Z,1.50
2019-01-14T21:22:50.031Z,1.50
2019-01-14T21:25:19.262Z,1.50
2019-01-14T21:27:48.444Z,1.50
2019-01-14T21:30:19.846Z,1.40
2019-01-14T21:32:49.173Z,1.40
2019-01-14T21:35:18.337Z,1.30
2019-01-14T21:37:47.925Z,1.20
2019-01-14T21:40:17.631Z,1.10
2019-01-14T21:42:46.837Z,1.10
2019-01-14T21:45:16.359Z,1.00
2019-01-14T21:47:45.581Z,0.90
2019-01-14T21:50:16.669Z,0.90
2019-01-14T21:52:45.921Z,0.90
2019-01-14T21:55:17.297Z,0.80
2019-01-14T21:57:46.553Z,0.80
2019-01-14T22:00:17.961Z,0.70
2019-01-14T22:02:47.219Z,0.70
2019-01-14T22:05:16.389Z,0.70
2019-01-14T22:07:45.745Z,0.70
2019-01-14T22:10:20.001Z,0.70
2019-01-14T22:12:49.217Z,0.60
2019-01-14T22:15:18.383Z,0.60
2019-01-14T22:17:47.539Z,0.60
2019-01-14T22:20:19.212Z,0.60
2019-01-14T22:22:48.497Z,0.70
2019-01-14T22:25:17.667Z,0.70
2019-01-14T22:27:46.858Z,0.80
2019-01-14T22:30:18.563Z,0.80
2019-01-14T22:32:47.695Z,0.80
2019-01-14T22:35:16.938Z,0.80
2019-01-14T22:37:46.155Z,0.80
2019-01-14T22:40:15.825Z,0.80
2019-01-14T22:42:45.037Z,0.80
2019-01-14T22:45:14.403Z,0.80
2019-01-14T22:47:43.575Z,0.80
2019-01-14T22:50:14.703Z,0.80
2019-01-14T22:52:43.937Z,0.90
2019-01-14T22:55:13.202Z,0.90
2019-01-14T22:57:42.595Z,0.90
2019-01-14T23:00:47.602Z,1.00
2019-01-14T23:03:17.360Z,1.00
2019-01-14T23:05:46.788Z,1.00
2019-01-14T23:08:16.043Z,1.00
2019-01-14T23:10:45.417Z,1.00
2019-01-14T23:13:14.661Z,0.90
2019-01-14T23:15:43.978Z,1.00
2019-01-14T23:18:13.149Z,0.90
2019-01-14T23:20:42.322Z,0.90
2019-01-14T23:23:11.558Z,0.90
2019-01-14T23:25:40.711Z,0.90
2019-01-14T23:28:09.981Z,0.90
2019-01-14T23:30:39.177Z,1.00
2019-01-14T23:33:08.448Z,0.90
2019-01-14T23:35:38.844Z,0.90
2019-01-14T23:38:08.018Z,0.90
2019-01-14T23:40:37.183Z,0.90
2019-01-14T23:43:06.671Z,0.90
2019-01-14T23:45:36.993Z,0.90
2019-01-14T23:48:06.289Z,0.90
2019-01-14T23:50:35.454Z,0.90
2019-01-14T23:53:04.687Z,1.00
2019-01-14T23:55:33.875Z,1.00
2019-01-14T23:58:03.135Z,1.00
